Time;durP1;ratioP1;P1;durP2;ratioP2;P2;SDS_P1;SDS_P2;PMS_P1;PMS_P2;Temp;Humidity;BMP_temperature;BMP_pressure;BME280_temperature;BME280_humidity;BME280_pressure;Samples;Min_cycle;Max_cycle;Signal;HPM_P1;HPM_P2
2023/04/01 00:00:24;;;;;;;2.30;1.60;;;;;;;13.55;54.51;97406.81;7052852;28;20342;-77
2023/04/01 00:03:48;;;;;;;1.70;1.53;;;;;;;13.33;55.52;97422.28;7053913;28;20689;-78
2023/04/01 00:07:10;;;;;;;1.70;1.60;;;;;;;13.39;55.47;97418.56;7053980;28;20212;-77
2023/04/01 00:10:32;;;;;;;3.50;1.60;;;;;;;13.40;55.64;97403.94;7052010;28;20719;-78
2023/04/01 00:13:54;;;;;;;1.70;1.60;;;;;;;13.44;55.37;97399.66;7053593;28;20228;-78
2023/04/01 00:17:15;;;;;;;1.60;1.50;;;;;;;13.38;55.34;97389.03;7053448;28;20319;-78
2023/04/01 00:20:38;;;;;;;2.37;1.57;;;;;;;13.06;56.77;97426.06;7052822;28;20196;-77
2023/04/01 00:24:00;;;;;;;2.67;1.70;;;;;;;13.67;55.17;97415.56;7053339;28;20337;-78
2023/04/01 00:27:21;;;;;;;2.03;1.43;;;;;;;13.52;55.67;97414.63;7052834;28;20197;-78
2023/04/01 00:30:43;;;;;;;3.43;1.73;;;;;;;13.29;56.39;97398.72;7052660;28;20201;-77
2023/04/01 00:34:04;;;;;;;2.43;1.87;;;;;;;13.75;55.14;97406.97;7053217;28;20354;-77
2023/04/01 00:37:28;;;;;;;3.73;1.80;;;;;;;13.68;55.42;97421.81;7053620;28;20242;-79
2023/04/01 00:40:50;;;;;;;2.50;1.80;;;;;;;14.08;54.04;97419.41;7051736;28;20235;-78
2023/04/01 00:44:16;;;;;;;1.90;1.77;;;;;;;13.90;54.18;97422.53;7052507;28;20231;-80
2023/04/01 00:47:37;;;;;;;2.40;1.57;;;;;;;13.76;54.67;97408.59;7052352;27;20243;-79
2023/04/01 00:51:00;;;;;;;1.90;1.70;;;;;;;13.11;56.75;97426.94;7051727;28;20301;-79
2023/04/01 00:54:25;;;;;;;1.70;1.60;;;;;;;12.96;57.18;97429.47;7052642;28;20222;-79
2023/04/01 00:57:47;;;;;;;1.80;1.67;;;;;;;13.07;56.94;97427.69;7052153;28;20225;-79
2023/04/01 01:01:09;;;;;;;2.47;1.73;;;;;;;12.81;57.24;97413.03;7052028;28;20304;-79
2023/04/01 01:04:32;;;;;;;2.87;1.70;;;;;;;13.69;55.92;97412.63;7052428;28;20230;-79
2023/04/01 01:08:01;;;;;;;3.80;1.77;;;;;;;13.64;55.80;97421.50;7051910;28;20208;-79
2023/04/01 01:11:29;;;;;;;3.03;1.97;;;;;;;13.23;56.91;97413.25;7051781;28;20204;-79
2023/04/01 01:14:56;;;;;;;1.77;1.53;;;;;;;13.41;56.35;97429.97;7051875;28;20367;-79
2023/04/01 01:18:23;;;;;;;2.47;1.93;;;;;;;12.99;57.97;97430.88;7051880;28;20570;-79
2023/04/01 01:22:10;;;;;;;3.60;1.90;;;;;;;13.53;56.75;97416.25;7051051;28;20206;-79
2023/04/01 01:25:38;;;;;;;3.73;1.83;;;;;;;13.31;57.00;97416.31;7051672;28;20572;-79
2023/04/01 01:29:07;;;;;;;1.57;1.47;;;;;;;13.42;56.63;97423.47;7051781;28;20631;-79
2023/04/01 01:32:42;;;;;;;1.90;1.63;;;;;;;13.39;56.66;97418.56;7051571;28;20229;-79
2023/04/01 01:36:07;;;;;;;2.23;1.70;;;;;;;13.21;57.05;97437.88;7052046;28;20783;-79
2023/04/01 01:39:32;;;;;;;1.93;1.73;;;;;;;13.23;57.31;97433.00;7050536;28;20211;-79
2023/04/01 01:42:57;;;;;;;3.33;1.90;;;;;;;13.43;56.75;97430.53;7051605;28;20316;-79
2023/04/01 01:46:21;;;;;;;3.10;1.77;;;;;;;13.56;56.17;97419.25;7051564;28;20258;-79
2023/04/01 01:49:43;;;;;;;2.33;1.47;;;;;;;13.20;57.19;97428.13;7051243;28;20685;-79
2023/04/01 01:53:07;;;;;;;1.43;1.30;;;;;;;13.77;55.85;97429.22;7051415;28;20755;-80
2023/04/01 01:56:30;;;;;;;1.60;1.50;;;;;;;14.13;54.82;97430.28;7051289;28;20230;-79
2023/04/01 01:59:53;;;;;;;3.07;1.47;;;;;;;13.92;55.09;97442.06;7050825;28;20258;-80
2023/04/01 02:03:16;;;;;;;1.63;1.53;;;;;;;13.84;55.75;97437.94;7051760;28;20381;-79
2023/04/01 02:06:39;;;;;;;2.60;1.90;;;;;;;14.20;54.84;97429.00;7051630;28;20223;-79
2023/04/01 02:10:02;;;;;;;1.90;1.60;;;;;;;13.79;56.07;97437.88;7051594;28;20208;-79
2023/04/01 02:13:28;;;;;;;1.67;1.50;;;;;;;13.67;56.16;97421.00;7059452;28;20320;-79
2023/04/01 02:16:53;;;;;;;2.43;1.70;;;;;;;13.92;55.74;97412.25;7060417;28;20287;-79
2023/04/01 02:20:18;;;;;;;3.80;1.50;;;;;;;13.89;55.48;97423.59;7050768;28;20433;-79
2023/04/01 02:23:41;;;;;;;2.37;1.53;;;;;;;13.70;55.56;97420.47;7050683;28;20249;-79
2023/04/01 02:27:04;;;;;;;1.40;1.30;;;;;;;13.48;56.44;97440.56;7050922;28;20257;-79
2023/04/01 02:30:27;;;;;;;1.70;1.60;;;;;;;13.51;56.23;97432.75;7050858;28;20690;-79
2023/04/01 02:33:49;;;;;;;2.43;1.33;;;;;;;12.72;57.24;97392.09;7053978;28;20372;-79
2023/04/01 02:37:11;;;;;;;2.10;1.50;;;;;;;13.50;56.75;97436.53;7055924;28;20230;-79
2023/04/01 02:40:45;;;;;;;1.50;1.40;;;;;;;12.88;57.69;97439.91;7054248;28;20257;-79
2023/04/01 02:44:09;;;;;;;1.50;1.40;;;;;;;12.63;57.89;97445.00;7056011;28;20284;-79
2023/04/01 02:47:30;;;;;;;1.70;1.40;;;;;;;12.59;58.02;97423.06;7056492;27;20655;-79
2023/04/01 02:50:52;;;;;;;1.27;1.23;;;;;;;12.92;57.07;97441.03;7096845;27;20211;-79
2023/04/01 02:54:13;;;;;;;1.40;1.30;;;;;;;12.95;56.60;97427.84;7084048;27;20338;-79
2023/04/01 02:57:35;;;;;;;1.50;1.40;;;;;;;12.60;57.53;97435.50;7083977;27;20231;-80
2023/04/01 03:00:58;;;;;;;3.13;2.83;;;;;;;12.57;57.50;97436.00;7082929;27;20211;-79
2023/04/01 03:04:19;;;;;;;1.40;1.30;;;;;;;12.95;56.00;97424.28;7083896;27;20233;-80
2023/04/01 03:07:41;;;;;;;1.40;1.30;;;;;;;13.14;55.30;97426.44;7083699;27;20538;-79
2023/04/01 03:11:02;;;;;;;1.40;1.40;;;;;;;13.05;55.46;97427.94;7082925;27;20210;-79
2023/04/01 03:14:24;;;;;;;1.60;1.50;;;;;;;12.94;56.14;97428.06;7083459;27;20272;-79
2023/04/01 03:17:47;;;;;;;1.50;1.40;;;;;;;12.67;56.57;97424.47;7083814;27;20235;-79
2023/04/01 03:21:16;;;;;;;1.30;1.30;;;;;;;12.83;55.70;97426.31;7082367;27;20207;-79
2023/04/01 03:24:37;;;;;;;1.83;1.70;;;;;;;12.70;56.37;97437.50;7083378;27;20230;-79
2023/04/01 03:28:00;;;;;;;1.20;1.20;;;;;;;12.48;56.38;97425.84;7083405;27;20340;-79
2023/04/01 03:31:21;;;;;;;1.97;1.30;;;;;;;12.87;55.55;97417.44;7082211;27;20208;-79
2023/04/01 03:34:44;;;;;;;1.67;1.30;;;;;;;12.69;55.92;97423.16;7083295;27;20741;-79
2023/04/01 03:38:06;;;;;;;2.80;1.40;;;;;;;13.05;54.88;97424.44;7082615;27;20268;-79
2023/04/01 03:41:27;;;;;;;2.10;1.30;;;;;;;12.69;55.72;97427.78;7081315;27;20207;-79
2023/04/01 03:44:49;;;;;;;1.47;1.37;;;;;;;12.76;55.46;97429.19;7083568;27;20307;-79
2023/04/01 03:48:11;;;;;;;2.63;1.50;;;;;;;12.69;55.47;97435.88;7082548;27;20577;-79
2023/04/01 03:51:33;;;;;;;1.20;1.20;;;;;;;13.21;53.96;97429.75;7081743;27;20351;-79
2023/04/01 03:54:55;;;;;;;1.30;1.20;;;;;;;13.30;53.30;97424.69;7082528;27;20362;-79
2023/04/01 03:58:16;;;;;;;1.13;1.13;;;;;;;13.02;54.43;97433.88;7082141;27;20571;-79
2023/04/01 04:01:38;;;;;;;2.00;1.50;;;;;;;13.23;53.98;97429.50;7081623;27;20285;-79
2023/04/01 04:04:59;;;;;;;1.80;1.23;;;;;;;13.20;53.74;97419.16;7081841;27;20259;-79
2023/04/01 04:08:22;;;;;;;1.20;1.20;;;;;;;12.93;54.14;97399.38;7081418;27;20200;-79
2023/04/01 04:11:44;;;;;;;1.80;1.27;;;;;;;12.68;55.23;97418.81;7080831;27;20247;-79
2023/04/01 04:15:06;;;;;;;1.60;1.50;;;;;;;12.88;54.54;97404.72;7081642;27;20236;-79
2023/04/01 04:18:28;;;;;;;1.50;1.33;;;;;;;13.17;53.72;97409.66;7081479;27;20775;-81
2023/04/01 04:21:49;;;;;;;1.47;1.37;;;;;;;12.94;53.59;97403.72;7080443;27;20255;-79
2023/04/01 04:25:12;;;;;;;1.70;1.60;;;;;;;12.54;54.86;97419.44;7081229;27;20283;-80
2023/04/01 04:28:34;;;;;;;1.53;1.43;;;;;;;12.84;53.84;97407.13;7081011;27;20207;-80
2023/04/01 04:31:55;;;;;;;1.63;1.40;;;;;;;12.65;54.43;97426.63;7080105;27;20211;-79
2023/04/01 04:35:17;;;;;;;1.30;1.20;;;;;;;12.89;53.64;97411.78;7081263;27;20333;-79
2023/04/01 04:38:38;;;;;;;1.33;1.30;;;;;;;13.07;53.17;97414.16;7080566;27;20223;-79
2023/04/01 04:42:01;;;;;;;1.20;1.20;;;;;;;12.91;53.28;97415.88;7078823;27;20208;-79
2023/04/01 04:45:23;;;;;;;1.70;1.60;;;;;;;12.99;53.09;97415.44;7080455;27;20298;-79
2023/04/01 04:48:44;;;;;;;1.40;1.40;;;;;;;13.03;52.98;97421.16;7075569;27;20571;-79
2023/04/01 04:52:06;;;;;;;1.33;1.23;;;;;;;12.66;54.18;97425.56;7079466;27;20216;-79
2023/04/01 04:55:27;;;;;;;1.40;1.30;;;;;;;12.18;56.04;97420.03;7079910;27;20279;-79
2023/04/01 04:58:50;;;;;;;1.57;1.47;;;;;;;12.13;55.99;97439.69;7080308;27;20275;-79
2023/04/01 05:02:12;;;;;;;1.80;1.40;;;;;;;12.25;56.21;97426.09;7093412;27;20375;-79
2023/04/01 05:05:34;;;;;;;1.30;1.30;;;;;;;12.79;54.62;97417.88;7082004;27;20255;-79
2023/04/01 05:08:55;;;;;;;1.80;1.67;;;;;;;12.68;54.81;97429.63;7080162;27;20197;-79
2023/04/01 05:12:17;;;;;;;1.30;1.30;;;;;;;12.43;55.60;97406.88;7079425;27;20272;-80
2023/04/01 05:15:39;;;;;;;1.40;1.30;;;;;;;12.41;55.41;97398.19;7080431;27;20336;-80
2023/04/01 05:19:01;;;;;;;2.33;1.53;;;;;;;12.46;55.78;97419.91;7080329;27;20685;-79
2023/04/01 05:22:23;;;;;;;1.50;1.40;;;;;;;12.79;54.71;97403.53;7079946;27;20296;-79
2023/04/01 05:25:45;;;;;;;2.67;1.50;;;;;;;12.50;55.83;97412.91;7079878;27;20211;-79
2023/04/01 05:29:07;;;;;;;3.13;1.70;;;;;;;13.06;54.07;97396.31;7079761;28;20207;-79
2023/04/01 05:32:31;;;;;;;1.70;1.60;;;;;;;12.49;55.51;97414.81;7079632;28;20247;-79
2023/04/01 05:35:53;;;;;;;2.30;1.70;;;;;;;12.70;55.21;97410.47;7080320;28;20252;-79
2023/04/01 05:39:14;;;;;;;2.67;2.47;;;;;;;13.02;54.21;97403.28;7079982;28;20223;-79
2023/04/01 05:42:36;;;;;;;2.57;1.70;;;;;;;12.93;54.36;97399.38;7078423;28;20239;-79
2023/04/01 05:45:58;;;;;;;2.00;1.80;;;;;;;13.32;53.61;97390.06;7080423;28;20184;-80
2023/04/01 05:49:20;;;;;;;4.60;1.73;;;;;;;12.84;54.57;97392.78;7079828;28;20215;-79
2023/04/01 05:52:42;;;;;;;2.00;1.60;;;;;;;13.27;53.54;97393.53;7079409;28;20652;-80
2023/04/01 05:56:04;;;;;;;1.87;1.60;;;;;;;13.39;52.88;97402.31;7079960;28;20257;-80
2023/04/01 05:59:25;;;;;;;2.50;1.50;;;;;;;13.35;53.58;97393.09;7079852;28;20236;-79
2023/04/01 06:02:47;;;;;;;2.60;1.63;;;;;;;13.60;52.24;97387.91;7079551;28;20257;-79
2023/04/01 06:06:15;;;;;;;3.20;2.33;;;;;;;13.67;51.98;97361.41;7080614;27;20239;-79
2023/04/01 06:09:36;;;;;;;2.57;1.90;;;;;;;13.39;52.16;97406.94;7084765;27;20188;-79
2023/04/01 06:13:02;;;;;;;3.23;2.00;;;;;;;13.68;52.37;97405.56;7085163;27;20318;-79
2023/04/01 06:16:31;;;;;;;1.63;1.53;;;;;;;13.04;53.13;97383.03;7085912;27;20277;-80
2023/04/01 06:19:56;;;;;;;2.23;1.90;;;;;;;13.30;52.66;97390.34;7084576;27;20216;-79
2023/04/01 06:23:28;;;;;;;2.73;1.70;;;;;;;13.48;51.88;97389.13;7084503;27;20227;-78
2023/04/01 06:26:55;;;;;;;3.13;2.03;;;;;;;13.99;51.35;97383.03;7084316;27;20210;-78
2023/04/01 06:30:31;;;;;;;3.73;2.03;;;;;;;14.18;51.00;97387.78;7098052;27;20216;-79
2023/04/01 06:34:01;;;;;;;3.57;2.10;;;;;;;14.54;50.27;97380.66;7102312;27;20251;-78
2023/04/01 06:37:40;;;;;;;2.30;2.10;;;;;;;13.92;51.01;97371.63;7086007;27;20315;-79
2023/04/01 06:41:21;;;;;;;1.70;1.60;;;;;;;14.36;50.43;97379.25;7082766;27;20598;-78
2023/04/01 06:44:53;;;;;;;1.60;1.50;;;;;;;14.43;49.68;97390.66;7084020;27;20231;-79
2023/04/01 06:48:26;;;;;;;1.70;1.60;;;;;;;14.72;49.07;97386.44;7083870;27;20677;-78
2023/04/01 06:51:54;;;;;;;3.13;1.73;;;;;;;14.99;48.53;97400.63;7078076;27;20622;-79
2023/04/01 06:55:25;;;;;;;1.77;1.50;;;;;;;13.52;50.84;97390.25;7083479;27;20599;-78
2023/04/01 06:58:52;;;;;;;1.43;1.37;;;;;;;14.15;50.11;97384.78;7083796;27;20251;-79
2023/04/01 07:02:22;;;;;;;1.80;1.47;;;;;;;13.15;52.55;97392.09;7082527;27;20312;-78
2023/04/01 07:05:43;;;;;;;1.87;1.37;;;;;;;12.88;52.82;97353.34;7083560;27;20198;-78
2023/04/01 07:09:10;;;;;;;1.77;1.50;;;;;;;13.82;51.03;97382.38;7083145;27;20237;-78
2023/04/01 07:12:39;;;;;;;1.83;1.60;;;;;;;13.90;50.56;97380.00;7089946;27;20621;-79
2023/04/01 07:16:09;;;;;;;2.07;1.50;;;;;;;14.01;50.62;97383.59;7080507;27;20240;-78
2023/04/01 07:19:34;;;;;;;1.60;1.50;;;;;;;14.02;49.99;97352.69;7053568;28;20230;-78
2023/04/01 07:22:57;;;;;;;1.97;1.33;;;;;;;14.31;49.59;97378.38;7053901;28;20225;-79
2023/04/01 07:26:21;;;;;;;1.50;1.40;;;;;;;14.38;49.27;97351.84;7054692;28;20198;-78
2023/04/01 07:29:43;;;;;;;1.40;1.30;;;;;;;14.43;49.57;97382.53;7054130;28;20656;-78
2023/04/01 07:33:10;;;;;;;1.60;1.50;;;;;;;14.24;49.85;97383.22;7054672;27;20267;-79
2023/04/01 07:36:35;;;;;;;1.33;1.23;;;;;;;14.27;50.04;97398.97;7057346;27;20191;-79
2023/04/01 07:40:03;;;;;;;2.37;1.40;;;;;;;13.91;50.47;97388.94;7051851;28;20237;-78
2023/04/01 07:43:36;;;;;;;1.40;1.30;;;;;;;13.79;51.18;97394.53;7053957;28;20223;-79
2023/04/01 07:47:08;;;;;;;1.50;1.40;;;;;;;13.86;50.65;97378.88;7054108;28;20569;-78
2023/04/01 07:50:32;;;;;;;1.23;1.23;;;;;;;14.36;49.79;97398.22;7053358;28;20196;-79
2023/04/01 07:54:01;;;;;;;1.37;1.27;;;;;;;14.00;50.50;97390.09;7054714;28;20224;-78
2023/04/01 07:57:28;;;;;;;1.60;1.50;;;;;;;14.10;49.98;97399.09;7055012;28;20257;-79
2023/04/01 08:00:52;;;;;;;2.33;1.40;;;;;;;14.37;50.04;97385.47;7053357;28;20240;-79
2023/04/01 08:04:24;;;;;;;3.03;1.20;;;;;;;14.04;50.41;97393.91;7054377;28;20233;-79
2023/04/01 08:07:54;;;;;;;1.10;1.10;;;;;;;14.15;50.47;97392.91;7054260;28;20586;-79
2023/04/01 08:11:26;;;;;;;2.23;2.03;;;;;;;14.48;49.79;97390.69;7053339;28;20734;-79
2023/04/01 08:14:54;;;;;;;1.60;1.50;;;;;;;14.27;50.76;97385.44;7055171;28;20231;-79
2023/04/01 08:18:24;;;;;;;1.70;1.60;;;;;;;14.14;50.44;97394.78;7056302;27;20275;-79
2023/04/01 08:21:48;;;;;;;1.47;1.37;;;;;;;13.65;52.07;97400.66;7059328;27;20206;-79
2023/04/01 08:25:15;;;;;;;1.33;1.30;;;;;;;14.13;51.23;97390.47;7068501;27;20220;-78
2023/04/01 08:28:38;;;;;;;3.10;1.50;;;;;;;14.14;50.90;97389.38;7082386;27;20197;-79
2023/04/01 08:32:04;;;;;;;1.70;1.50;;;;;;;14.64;50.94;97400.50;7080517;27;20302;-79
2023/04/01 08:35:30;;;;;;;1.33;1.23;;;;;;;14.61;50.27;97413.78;7082484;27;20199;-79
2023/04/01 08:38:54;;;;;;;1.50;1.40;;;;;;;14.64;51.22;97405.94;7053674;28;20225;-79
2023/04/01 08:42:41;;;;;;;1.50;1.40;;;;;;;14.64;50.67;97403.22;7051812;28;20224;-79
2023/04/01 08:46:21;;;;;;;5.23;1.67;;;;;;;14.44;52.12;97400.41;7053499;28;20246;-79
2023/04/01 08:49:56;;;;;;;2.37;1.50;;;;;;;14.49;51.19;97418.59;7052784;28;20204;-79
2023/04/01 08:53:26;;;;;;;2.10;1.30;;;;;;;14.50;52.15;97412.91;7053098;28;20234;-79
2023/04/01 08:56:53;;;;;;;1.77;1.47;;;;;;;14.16;53.44;97424.34;7052943;28;20190;-79
2023/04/01 09:00:23;;;;;;;2.53;1.53;;;;;;;14.34;53.70;97413.91;7052048;28;20301;-79
2023/04/01 09:04:15;;;;;;;3.53;1.53;;;;;;;14.00;55.30;97420.72;7052831;28;20374;-79
2023/04/01 09:07:41;;;;;;;1.80;1.40;;;;;;;13.70;56.05;97406.91;7039276;28;20690;-79
2023/04/01 09:11:09;;;;;;;1.33;1.30;;;;;;;14.03;55.91;97416.66;7051217;28;20205;-78
2023/04/01 09:14:46;;;;;;;2.33;1.23;;;;;;;13.71;55.86;97424.00;7051537;28;20349;-78
2023/04/01 09:18:25;;;;;;;1.63;1.47;;;;;;;13.29;57.90;97417.66;7051859;28;20234;-78
2023/04/01 09:22:16;;;;;;;2.37;1.37;;;;;;;13.43;56.92;97419.69;7050929;28;20365;-79
2023/04/01 09:25:47;;;;;;;1.60;1.50;;;;;;;13.24;57.37;97414.91;7065909;28;20276;-79
2023/04/01 09:29:18;;;;;;;3.87;1.70;;;;;;;14.06;55.62;97408.84;7051974;28;20189;-79
2023/04/01 09:33:06;;;;;;;2.47;1.70;;;;;;;14.12;55.11;97401.56;7050533;28;20230;-78
2023/04/01 09:36:39;;;;;;;1.47;1.40;;;;;;;14.60;53.50;97420.28;7051949;28;20555;-81
2023/04/01 09:40:16;;;;;;;1.50;1.40;;;;;;;14.17;54.69;97421.34;7049107;28;20233;-79
2023/04/01 09:43:54;;;;;;;1.50;1.40;;;;;;;14.51;53.08;97422.69;7056538;28;20365;-79
2023/04/01 09:47:28;;;;;;;2.07;1.37;;;;;;;14.34;53.09;97416.63;7057516;28;20629;-79
2023/04/01 09:50:57;;;;;;;1.40;1.30;;;;;;;14.79;52.71;97429.59;7056693;28;20756;-79
2023/04/01 09:54:31;;;;;;;1.27;1.27;;;;;;;13.90;53.83;97427.94;7057163;28;20267;-79
2023/04/01 09:58:10;;;;;;;1.37;1.30;;;;;;;14.14;53.52;97434.63;7057329;28;20265;-79
2023/04/01 10:01:45;;;;;;;1.40;1.30;;;;;;;13.97;54.08;97428.53;7056353;28;20259;-79
2023/04/01 10:05:51;;;;;;;1.10;1.10;;;;;;;13.96;53.62;97435.03;7056532;28;20224;-79
2023/04/01 10:09:39;;;;;;;1.23;1.10;;;;;;;13.87;53.88;97431.97;7057015;28;20185;-79
2023/04/01 10:13:23;;;;;;;1.33;1.30;;;;;;;13.94;53.83;97431.78;7056596;28;20633;-79
2023/04/01 10:17:26;;;;;;;4.30;1.40;;;;;;;14.13;54.12;97436.53;7026066;28;20235;-79
2023/04/01 10:21:08;;;;;;;1.20;1.20;;;;;;;14.14;52.49;97442.75;7043911;28;20319;-79
2023/04/01 10:24:48;;;;;;;1.40;1.30;;;;;;;14.32;53.19;97448.63;7070960;28;20278;-79
2023/04/01 10:28:47;;;;;;;1.40;1.30;;;;;;;14.87;52.09;97443.47;7057858;28;20271;-79
2023/04/01 10:32:30;;;;;;;1.20;1.10;;;;;;;14.21;52.98;97437.97;7056449;28;20211;-79
2023/04/01 10:36:26;;;;;;;1.00;1.00;;;;;;;14.36;51.57;97389.25;7057172;28;20254;-79
2023/04/01 10:40:38;;;;;;;1.63;1.50;;;;;;;14.97;49.88;97440.81;7055608;28;20366;-78
2023/04/01 10:44:13;;;;;;;1.30;1.30;;;;;;;14.45;51.62;97439.22;7051711;28;20845;-79
2023/04/01 10:47:58;;;;;;;1.10;1.10;;;;;;;14.00;52.91;97447.00;7057348;28;20209;-79
2023/04/01 10:51:28;;;;;;;1.30;1.20;;;;;;;14.26;52.44;97446.13;7056436;28;20279;-79
2023/04/01 10:54:50;;;;;;;1.50;1.20;;;;;;;14.44;52.83;97446.53;7055972;28;20312;-79
2023/04/01 10:58:29;;;;;;;1.00;1.00;;;;;;;13.70;53.77;97444.03;7055561;28;20282;-79
2023/04/01 11:02:19;;;;;;;1.10;1.10;;;;;;;14.31;52.13;97438.84;7054912;28;20213;-79
2023/04/01 11:06:09;;;;;;;1.00;1.00;;;;;;;14.01;52.12;97435.91;7055440;28;20200;-79
2023/04/01 11:10:10;;;;;;;1.00;1.00;;;;;;;14.00;51.83;97447.00;7055461;28;20258;-78
2023/04/01 11:14:00;;;;;;;1.20;1.20;;;;;;;14.29;52.22;97443.69;7055330;28;20704;-80
2023/04/01 11:17:32;;;;;;;1.07;1.07;;;;;;;14.04;53.19;97440.78;7028252;28;20213;-79
2023/04/01 11:21:32;;;;;;;1.10;1.10;;;;;;;14.16;53.87;97435.19;7054285;28;20707;-79
2023/04/01 11:25:19;;;;;;;1.00;1.00;;;;;;;14.32;52.71;97437.78;7055180;28;20763;-79
2023/04/01 11:29:05;;;;;;;1.17;1.17;;;;;;;14.32;53.88;97436.94;7045533;28;20205;-79
2023/04/01 11:32:39;;;;;;;1.07;1.00;;;;;;;13.98;52.76;97413.94;7054029;28;20229;-79
2023/04/01 11:36:18;;;;;;;1.30;1.30;;;;;;;14.36;52.83;97441.59;7070881;28;20303;-79
2023/04/01 11:39:48;;;;;;;1.10;1.10;;;;;;;15.06;51.32;97447.38;7053554;28;20210;-79
2023/04/01 11:43:14;;;;;;;1.00;1.00;;;;;;;14.95;51.53;97461.16;7056069;28;20229;-79
2023/04/01 11:46:41;;;;;;;1.20;1.20;;;;;;;14.91;51.04;97460.03;7055695;28;20255;-79
2023/04/01 11:50:18;;;;;;;1.40;1.30;;;;;;;15.10;48.96;97451.16;7054323;28;20359;-78
2023/04/01 11:53:45;;;;;;;0.87;0.87;;;;;;;14.52;50.27;97459.56;7054447;28;20617;-79
2023/04/01 11:57:33;;;;;;;1.23;1.10;;;;;;;15.04;49.81;97462.28;7054687;28;20190;-79
2023/04/01 12:01:02;;;;;;;0.90;0.90;;;;;;;15.14;49.39;97465.84;7053440;28;20230;-79
2023/04/01 12:04:34;;;;;;;0.90;0.90;;;;;;;15.10;48.84;97475.59;7054816;28;20230;-79
2023/04/01 12:08:08;;;;;;;1.57;1.03;;;;;;;14.61;50.42;97485.13;7054313;28;20520;-79
2023/04/01 12:11:36;;;;;;;0.83;0.83;;;;;;;14.86;49.19;97481.75;7053807;28;20193;-79
2023/04/01 12:15:06;;;;;;;1.40;1.30;;;;;;;15.11;49.46;97482.66;7054306;28;20234;-79
2023/04/01 12:18:34;;;;;;;0.90;0.90;;;;;;;14.61;50.04;97465.31;7053769;28;20664;-79
2023/04/01 12:22:09;;;;;;;1.70;1.20;;;;;;;14.38;51.97;97481.97;7052830;28;20280;-79
2023/04/01 12:25:46;;;;;;;1.00;1.00;;;;;;;14.71;51.25;97487.91;7054288;28;20255;-79
2023/04/01 12:29:14;;;;;;;1.00;1.00;;;;;;;14.76;51.11;97482.50;7052836;28;20205;-79
2023/04/01 12:32:41;;;;;;;1.20;1.20;;;;;;;15.03;51.56;97480.47;7052141;28;20233;-79
2023/04/01 12:36:11;;;;;;;1.17;1.10;;;;;;;14.89;51.84;97487.47;7053018;28;20296;-79
2023/04/01 12:40:03;;;;;;;1.30;1.30;;;;;;;14.63;52.44;97493.81;7050919;28;20227;-79
2023/04/01 12:43:50;;;;;;;1.27;1.27;;;;;;;14.79;52.62;97486.56;7052641;28;20340;-80
2023/04/01 12:47:23;;;;;;;0.93;0.93;;;;;;;14.64;52.72;97475.66;7053461;28;20254;-79
2023/04/01 12:51:20;;;;;;;0.90;0.90;;;;;;;14.78;52.26;97480.34;7051499;28;20250;-78
2023/04/01 12:55:14;;;;;;;0.90;0.90;;;;;;;14.47;52.41;97472.28;7052655;28;20227;-79
2023/04/01 12:58:55;;;;;;;0.90;0.90;;;;;;;14.87;50.83;97488.81;7052249;28;20291;-79
2023/04/01 13:02:26;;;;;;;1.00;1.00;;;;;;;15.05;49.82;97488.34;7051368;28;20275;-79
2023/04/01 13:06:26;;;;;;;1.17;1.17;;;;;;;14.67;49.74;97489.50;7052148;28;20210;-78
2023/04/01 13:09:54;;;;;;;1.20;1.20;;;;;;;14.62;50.41;97492.19;7051968;28;20688;-78
2023/04/01 13:13:25;;;;;;;1.23;1.10;;;;;;;14.67;50.81;97492.22;7051811;28;20227;-78
2023/04/01 13:16:53;;;;;;;0.83;0.83;;;;;;;15.03;48.36;97494.03;7051336;28;20194;-78
2023/04/01 13:20:19;;;;;;;1.20;1.20;;;;;;;14.82;49.48;97480.63;7064832;27;20710;-78
2023/04/01 13:23:50;;;;;;;1.00;1.00;;;;;;;15.00;49.51;97500.00;7079671;27;20312;-78
2023/04/01 13:27:17;;;;;;;0.93;0.93;;;;;;;15.33;48.74;97496.09;7079935;27;20185;-78
2023/04/01 13:30:44;;;;;;;1.17;1.17;;;;;;;15.59;48.17;97514.09;7079557;28;20595;-78
2023/04/01 13:34:17;;;;;;;1.40;1.40;;;;;;;15.46;48.35;97523.53;7080112;28;20225;-79
2023/04/01 13:37:52;;;;;;;1.10;1.10;;;;;;;14.92;48.98;97515.97;7079632;28;20201;-79
2023/04/01 13:41:21;;;;;;;1.20;1.20;;;;;;;15.08;48.73;97501.38;7077433;28;20245;-78
2023/04/01 13:44:47;;;;;;;1.20;1.20;;;;;;;15.09;48.21;97517.41;7085197;28;20823;-79
2023/04/01 13:48:32;;;;;;;1.30;1.20;;;;;;;14.99;48.31;97522.78;7087582;28;20645;-78
2023/04/01 13:52:08;;;;;;;1.10;1.10;;;;;;;15.13;48.03;97512.25;7078528;28;20262;-79
2023/04/01 13:55:40;;;;;;;1.10;1.10;;;;;;;15.41;46.99;97522.72;7079526;28;20659;-79
2023/04/01 13:59:30;;;;;;;1.27;1.10;;;;;;;15.04;47.74;97513.84;7079551;28;20214;-79
2023/04/01 14:03:05;;;;;;;1.10;1.10;;;;;;;15.22;47.25;97533.19;7077126;28;20347;-78
2023/04/01 14:06:33;;;;;;;0.93;0.93;;;;;;;14.86;48.43;97525.97;7079567;28;20197;-79
2023/04/01 14:10:09;;;;;;;1.10;1.00;;;;;;;15.12;47.86;97532.34;7078333;28;20256;-80
2023/04/01 14:13:35;;;;;;;0.97;0.97;;;;;;;14.62;48.53;97510.38;7072830;28;20215;-79
2023/04/01 14:17:04;;;;;;;0.90;0.90;;;;;;;15.12;47.73;97524.19;7056927;28;20276;-79
2023/04/01 14:20:40;;;;;;;1.00;1.00;;;;;;;14.94;49.14;97533.63;7051363;28;20258;-79
2023/04/01 14:24:15;;;;;;;1.70;1.60;;;;;;;15.03;48.98;97536.63;7051446;28;20226;-79
2023/04/01 14:27:48;;;;;;;2.83;2.10;;;;;;;15.32;48.93;97538.72;7051089;28;20291;-79
2023/04/01 14:31:34;;;;;;;1.60;1.50;;;;;;;14.98;49.28;97539.34;7055856;28;20206;-79
2023/04/01 14:35:04;;;;;;;1.20;1.20;;;;;;;15.14;47.74;97538.31;7058901;27;20279;-79
2023/04/01 14:38:31;;;;;;;1.17;1.17;;;;;;;15.77;47.29;97533.44;7076286;28;20713;-79
2023/04/01 14:42:00;;;;;;;1.10;1.10;;;;;;;15.47;47.86;97543.38;7069735;28;20719;-79
2023/04/01 14:45:50;;;;;;;1.00;1.00;;;;;;;15.19;49.24;97550.03;7056159;28;20325;-79
2023/04/01 14:49:16;;;;;;;1.00;1.00;;;;;;;14.98;50.62;97561.06;7043485;28;20207;-78
2023/04/01 14:52:40;;;;;;;1.30;1.20;;;;;;;14.94;51.24;97544.47;7054732;28;20643;-78
2023/04/01 14:56:02;;;;;;;1.03;1.03;;;;;;;14.85;51.79;97551.47;7055690;28;20203;-79
2023/04/01 14:59:28;;;;;;;1.40;1.30;;;;;;;15.17;52.25;97563.03;7055332;28;20729;-79
2023/04/01 15:02:59;;;;;;;1.70;1.17;;;;;;;15.43;51.03;97555.84;7054938;28;20287;-79
2023/04/01 15:06:42;;;;;;;1.10;1.10;;;;;;;14.36;51.62;97551.94;7055199;28;20198;-78
2023/04/01 15:10:12;;;;;;;1.17;1.17;;;;;;;14.87;51.40;97560.16;7053937;28;20239;-79
2023/04/01 15:13:51;;;;;;;1.20;1.20;;;;;;;15.06;50.79;97555.13;7054939;28;20235;-78
2023/04/01 15:17:31;;;;;;;1.10;1.10;;;;;;;14.94;50.89;97563.47;7054632;28;20285;-79
2023/04/01 15:21:12;;;;;;;1.10;1.10;;;;;;;15.02;50.96;97556.72;7054016;28;20617;-78
2023/04/01 15:24:42;;;;;;;1.20;1.20;;;;;;;15.23;49.28;97567.41;7054610;28;20254;-79
2023/04/01 15:28:09;;;;;;;1.30;1.30;;;;;;;14.81;50.57;97565.84;7054275;28;20210;-79
2023/04/01 15:31:33;;;;;;;1.10;1.10;;;;;;;14.54;49.90;97574.06;7053980;28;20187;-79
2023/04/01 15:34:59;;;;;;;1.00;1.00;;;;;;;14.30;50.08;97559.22;7054600;28;20576;-79
2023/04/01 15:38:30;;;;;;;1.90;1.80;;;;;;;14.73;49.90;97588.00;7054094;28;20568;-78
2023/04/01 15:42:12;;;;;;;1.57;1.47;;;;;;;15.12;49.26;97578.50;7051437;28;20225;-78
2023/04/01 15:45:43;;;;;;;1.20;1.20;;;;;;;14.86;48.77;97571.28;7053970;28;20676;-78
2023/04/01 15:49:13;;;;;;;1.40;1.40;;;;;;;14.84;49.35;97587.84;7053753;28;20191;-79
2023/04/01 15:52:44;;;;;;;1.47;1.40;;;;;;;14.80;50.00;97592.13;7052678;28;20273;-78
2023/04/01 15:56:17;;;;;;;2.70;2.50;;;;;;;15.15;49.76;97592.34;7063051;28;20274;-79
2023/04/01 15:59:52;;;;;;;1.50;1.40;;;;;;;15.13;49.24;97589.09;7056773;28;20218;-78
2023/04/01 16:03:32;;;;;;;1.60;1.50;;;;;;;14.69;49.57;97562.50;7053647;28;20227;-79
2023/04/01 16:07:00;;;;;;;2.20;2.00;;;;;;;15.13;49.07;97599.13;7053663;28;20225;-79
2023/04/01 16:10:35;;;;;;;1.20;1.20;;;;;;;15.44;48.79;97606.38;7052844;28;20207;-79
2023/04/01 16:14:08;;;;;;;1.70;1.60;;;;;;;15.14;48.75;97598.88;7053297;28;20582;-79
2023/04/01 16:17:50;;;;;;;1.70;1.60;;;;;;;14.65;49.89;97599.34;7053612;28;20598;-79
2023/04/01 16:21:15;;;;;;;2.03;1.90;;;;;;;14.95;49.50;97615.84;7052051;28;20233;-79
2023/04/01 16:24:41;;;;;;;1.50;1.40;;;;;;;15.17;48.46;97594.81;7053075;28;20228;-79
2023/04/01 16:28:16;;;;;;;2.00;1.80;;;;;;;14.89;49.66;97615.00;7052873;28;20190;-79